Etusivu
METAR-TAF:

METAR-TAF

Lentoasemat :

Frederick, Oklahoma, Yhdysvallat

Leveyspiiri: 34-20-40N, Pituuspiiri: 098-58-59W, korkeus merenpinnasta: 382 m

Tämänhetkinen sää

Tämä raportti tehtiin 20 minuuttia sitten, kello 09.53 UTC
Tuuli 10 kn pohjoisen/luoteesta
Lämpötila 9°C
Kosteus 66%
Ilmanpaine 1020 hPa
Näkyvyys: 16.1 km
selkeää

METAR: KFDR 060953Z AUTO 33010KT 10SM CLR 09/03 A3011 RMK AO2 SLP187 T00890028 $

Aika: 04:13 (10:13 UTC)


TAF: puuttuu

Säähavainnot ja -ennusteet yli 4000 lentoasemalta (METAR- ja TAF-raportit).

Käytössä olevat sääasemat on merkitty karttaan keltaisilla ja punaisilla pisteillä.

Aseta hiiri pisteen päälle nähdäksesi sääaseman nimen.

Klikkaa sitten nähdäksesi säähavainnot ja -ennusteet.

Kartan vaihtaminen: klikkaa mustalla rastilla varustettuja vihreitä pisteitä, niin voit zoomata sisään; viivalla varustettua vihreää pistettä, niin voit zoomata ulos tai vihreitä nuolia, niin pääset viereisille kartoille.


METAR-TAF: